createdAt,value
2019-03-20T00:01:46.653Z,80.00
2019-03-20T00:04:21.993Z,80.20
2019-03-20T00:06:57.643Z,80.80
2019-03-20T00:09:33.007Z,81.10
2019-03-20T00:12:08.945Z,81.30
2019-03-20T00:14:44.286Z,81.10
2019-03-20T00:17:19.966Z,81.50
2019-03-20T00:19:55.147Z,81.20
2019-03-20T00:22:30.162Z,81.60
2019-03-20T00:25:06.595Z,81.80
2019-03-20T00:27:42.693Z,82.70
2019-03-20T00:30:19.217Z,83.70
2019-03-20T00:32:54.544Z,83.10
2019-03-20T00:38:05.063Z,83.80
2019-03-20T00:40:41.069Z,84.40
2019-03-20T00:43:16.094Z,83.80
2019-03-20T00:45:51.216Z,83.70
2019-03-20T00:48:26.248Z,84.40
2019-03-20T00:53:36.658Z,82.90
2019-03-20T00:56:12.939Z,83.00
2019-03-20T00:58:47.972Z,83.00
2019-03-20T01:01:22.982Z,82.60
2019-03-20T01:03:58.344Z,82.80
2019-03-20T01:09:08.648Z,81.90
2019-03-20T01:11:43.678Z,81.60
2019-03-20T01:14:18.701Z,81.40
2019-03-20T01:16:53.838Z,82.10
2019-03-20T01:19:29.286Z,82.50
2019-03-20T01:22:07.061Z,81.30
2019-03-20T01:24:42.086Z,81.40
2019-03-20T01:27:17.110Z,81.90
2019-03-20T01:29:52.119Z,83.40
2019-03-20T01:32:27.150Z,83.10
2019-03-20T01:35:02.465Z,83.70
2019-03-20T01:37:39.549Z,84.30
2019-03-20T01:47:59.455Z,85.20
2019-03-20T01:55:44.491Z,84.90
2019-03-20T01:58:19.499Z,85.30
2019-03-20T02:06:03.892Z,86.10
2019-03-20T02:16:23.338Z,85.50
2019-03-20T02:18:58.368Z,85.90
2019-03-20T02:21:33.702Z,85.50
2019-03-20T02:24:08.734Z,85.10
2019-03-20T02:26:43.755Z,85.20
2019-03-20T02:29:18.788Z,84.90
2019-03-20T02:31:53.875Z,85.20
2019-03-20T02:34:28.903Z,85.50
2019-03-20T02:37:04.121Z,85.80
2019-03-20T02:44:49.290Z,86.60
2019-03-20T02:47:24.314Z,87.60
2019-03-20T02:52:34.135Z,87.10
2019-03-20T02:55:11.643Z,86.70
2019-03-20T02:57:47.071Z,86.40
2019-03-20T03:02:56.790Z,87.40
2019-03-20T03:05:32.072Z,87.10
2019-03-20T03:08:07.413Z,86.60
2019-03-20T03:10:42.788Z,87.00
2019-03-20T03:13:17.902Z,86.80
2019-03-20T03:15:53.459Z,86.90
2019-03-20T03:18:28.463Z,87.10
2019-03-20T03:23:39.078Z,87.30
2019-03-20T03:26:14.099Z,87.90
2019-03-20T03:28:49.444Z,88.10
2019-03-20T03:31:24.930Z,87.40
2019-03-20T03:34:00.427Z,87.50
2019-03-20T03:39:09.972Z,88.00
2019-03-20T03:46:54.504Z,88.10
2019-03-20T03:49:29.540Z,89.30
2019-03-20T03:52:04.850Z,88.80
2019-03-20T03:54:39.864Z,88.50
2019-03-20T03:57:15.331Z,88.50
2019-03-20T04:05:00.599Z,89.60
2019-03-20T04:10:15.737Z,89.20
2019-03-20T04:15:25.709Z,89.40
2019-03-20T04:20:36.679Z,89.20
2019-03-20T04:25:46.225Z,89.40
2019-03-20T04:36:07.588Z,90.30
2019-03-20T05:12:15.913Z,90.10
2019-03-20T05:56:07.149Z,89.20
2019-03-20T06:01:18.560Z,87.40
2019-03-20T06:03:53.605Z,86.60
2019-03-20T06:06:28.623Z,86.40
2019-03-20T06:19:24.501Z,83.30
2019-03-20T06:27:09.439Z,82.90
2019-03-20T07:32:33.176Z,34.40
2019-03-20T07:35:09.176Z,33.00
2019-03-20T07:37:55.324Z,32.50
2019-03-20T07:53:34.075Z,30.50
2019-03-20T07:56:10.051Z,30.40
2019-03-20T07:58:51.621Z,30.40
2019-03-20T08:22:34.089Z,28.80
2019-03-20T08:25:15.868Z,28.50
2019-03-20T08:27:53.953Z,28.60
2019-03-20T08:33:06.646Z,29.00
2019-03-20T08:46:12.450Z,27.50
2019-03-20T09:04:28.131Z,26.50
2019-03-20T09:07:14.084Z,26.70
2019-03-20T09:25:43.523Z,26.50
2019-03-20T09:30:54.334Z,26.90
2019-03-20T09:33:34.485Z,27.00
2019-03-20T09:36:09.830Z,26.70
2019-03-20T09:49:13.564Z,25.40
2019-03-20T09:52:04.337Z,25.90
2019-03-20T09:54:47.426Z,26.30
2019-03-20T09:57:24.422Z,26.50
2019-03-20T10:02:38.946Z,26.00
2019-03-20T10:05:21.348Z,26.30
2019-03-20T10:08:08.243Z,26.10
2019-03-20T10:10:48.126Z,25.90
2019-03-20T10:21:54.776Z,25.60
2019-03-20T10:24:30.275Z,25.90
2019-03-20T10:27:18.325Z,26.90
2019-03-20T10:38:04.809Z,26.40
2019-03-20T10:40:52.137Z,25.80
2019-03-20T10:46:21.385Z,25.30
2019-03-20T10:49:13.563Z,25.80
2019-03-20T11:04:29.677Z,24.90
2019-03-20T11:07:07.410Z,24.40
2019-03-20T11:12:58.753Z,24.10
2019-03-20T11:21:35.203Z,25.20
2019-03-20T11:24:18.135Z,25.40
2019-03-20T11:27:02.423Z,26.80
2019-03-20T11:34:52.429Z,26.20
2019-03-20T11:40:23.280Z,27.30
2019-03-20T11:45:42.288Z,28.70
2019-03-20T11:48:33.306Z,29.60
2019-03-20T11:53:49.476Z,33.00
2019-03-20T11:56:27.808Z,32.90
2019-03-20T11:59:03.303Z,33.20
2019-03-20T12:01:44.291Z,32.30
2019-03-20T12:04:22.259Z,32.50
2019-03-20T12:06:57.956Z,33.40
2019-03-20T12:09:40.961Z,33.90
2019-03-20T12:12:13.510Z,34.60
2019-03-20T12:14:49.008Z,35.20
2019-03-20T12:17:25.002Z,35.80
2019-03-20T12:20:02.338Z,35.30
2019-03-20T12:22:39.575Z,35.10
2019-03-20T12:25:20.748Z,34.40
2019-03-20T12:27:56.979Z,33.20
2019-03-20T12:30:34.773Z,31.90
2019-03-20T12:33:12.267Z,31.80
2019-03-20T12:35:49.456Z,30.50
2019-03-20T12:38:26.261Z,29.70
2019-03-20T12:41:07.533Z,29.30
2019-03-20T12:43:46.494Z,29.00
2019-03-20T12:46:40.881Z,28.90
2019-03-20T12:49:10.897Z,29.40
2019-03-20T12:51:55.504Z,29.10
2019-03-20T12:54:38.123Z,28.90
2019-03-20T12:57:15.178Z,28.60
2019-03-20T12:59:50.215Z,28.60
2019-03-20T13:18:03.950Z,30.50
2019-03-20T13:26:00.856Z,32.00
2019-03-20T13:31:23.254Z,36.30
2019-03-20T13:33:59.925Z,36.70
2019-03-20T13:36:35.845Z,36.70
2019-03-20T13:39:11.200Z,36.70
2019-03-20T13:41:48.215Z,37.80
2019-03-20T13:44:24.246Z,38.20
2019-03-20T13:47:01.370Z,37.00
2019-03-20T13:49:36.440Z,35.20
2019-03-20T13:52:14.419Z,33.10
2019-03-20T13:54:49.861Z,31.20
2019-03-20T13:57:25.309Z,30.40
2019-03-20T14:00:00.390Z,30.10
2019-03-20T14:02:35.489Z,30.00
2019-03-20T14:05:17.967Z,29.20
2019-03-20T14:07:55.957Z,29.10
2019-03-20T14:10:34.211Z,28.80
2019-03-20T14:13:24.225Z,28.70
2019-03-20T14:18:35.867Z,29.20
2019-03-20T14:21:10.925Z,29.80
2019-03-20T14:23:48.220Z,30.70
2019-03-20T14:29:05.390Z,31.40
2019-03-20T14:31:59.634Z,32.80
2019-03-20T14:34:41.698Z,34.60
2019-03-20T14:37:17.620Z,34.90
2019-03-20T14:39:53.878Z,36.30
2019-03-20T14:42:32.268Z,36.50
2019-03-20T14:47:46.590Z,36.00
2019-03-20T14:50:36.573Z,36.70
2019-03-20T14:53:15.626Z,36.00
2019-03-20T14:55:51.388Z,36.00
2019-03-20T14:58:28.402Z,35.80
2019-03-20T15:01:04.846Z,34.80
2019-03-20T15:03:40.886Z,34.20
2019-03-20T15:06:15.927Z,33.60
2019-03-20T15:08:50.985Z,34.20
2019-03-20T15:11:29.205Z,35.60
2019-03-20T15:14:04.233Z,37.40
2019-03-20T15:16:40.998Z,38.20
2019-03-20T15:19:16.108Z,39.00
2019-03-20T15:21:55.774Z,40.40
2019-03-20T15:24:31.994Z,41.20
2019-03-20T15:27:08.094Z,41.90
2019-03-20T15:29:43.650Z,42.10
2019-03-20T15:32:19.599Z,42.60
2019-03-20T15:34:54.632Z,42.90
2019-03-20T15:37:29.762Z,43.00
2019-03-20T15:40:08.364Z,42.90
2019-03-20T15:42:43.496Z,42.30
2019-03-20T15:45:20.195Z,42.70
2019-03-20T15:47:55.230Z,42.80
2019-03-20T15:50:30.447Z,43.10
2019-03-20T15:53:05.823Z,43.40
2019-03-20T15:55:42.023Z,43.20
2019-03-20T15:58:18.035Z,43.80
2019-03-20T16:00:53.457Z,43.80
2019-03-20T16:03:33.563Z,44.10
2019-03-20T16:06:08.642Z,44.10
2019-03-20T16:08:43.778Z,44.50
2019-03-20T16:11:19.454Z,44.50
2019-03-20T16:13:54.477Z,45.00
2019-03-20T16:16:33.049Z,45.20
2019-03-20T16:19:08.814Z,45.40
2019-03-20T16:21:44.042Z,45.70
2019-03-20T16:24:19.107Z,45.70
2019-03-20T16:26:55.415Z,46.10
2019-03-20T16:29:31.092Z,46.40
2019-03-20T16:32:07.183Z,46.70
2019-03-20T16:34:42.242Z,46.80
2019-03-20T16:37:18.487Z,47.10
2019-03-20T16:39:54.542Z,47.30
2019-03-20T16:42:29.821Z,47.30
2019-03-20T16:45:08.454Z,47.50
2019-03-20T16:47:43.489Z,48.50
2019-03-20T16:50:20.762Z,48.00
2019-03-20T16:52:55.952Z,48.20
2019-03-20T16:55:32.076Z,49.10
2019-03-20T16:58:08.085Z,49.00
2019-03-20T17:00:44.027Z,49.00
2019-03-20T17:03:20.384Z,49.10
2019-03-20T17:05:55.891Z,49.50
2019-03-20T17:08:34.182Z,49.40
2019-03-20T17:11:10.590Z,49.50
2019-03-20T17:13:45.633Z,49.60
2019-03-20T17:16:21.962Z,50.00
2019-03-20T17:18:56.999Z,50.10
2019-03-20T17:21:35.157Z,50.20
2019-03-20T17:24:10.690Z,50.10
2019-03-20T17:26:46.716Z,50.30
2019-03-20T17:29:22.878Z,50.20
2019-03-20T17:31:59.204Z,50.30
2019-03-20T17:34:34.234Z,50.50
2019-03-20T17:37:09.635Z,50.70
2019-03-20T17:39:45.062Z,50.70
2019-03-20T17:42:20.098Z,50.80
2019-03-20T17:44:55.123Z,50.80
2019-03-20T17:47:30.242Z,50.80
2019-03-20T17:50:09.893Z,51.80
2019-03-20T17:52:45.870Z,51.20
2019-03-20T17:55:22.244Z,51.40
2019-03-20T17:57:59.532Z,52.00
2019-03-20T18:00:44.096Z,51.30
2019-03-20T18:03:19.448Z,51.30
2019-03-20T18:05:55.459Z,51.50
2019-03-20T18:08:31.742Z,51.50
2019-03-20T18:11:09.042Z,51.70
2019-03-20T18:13:44.897Z,52.00
2019-03-20T18:16:20.234Z,51.80
2019-03-20T18:18:55.575Z,52.00
2019-03-20T18:21:30.629Z,52.10
2019-03-20T18:24:05.710Z,52.10
2019-03-20T18:26:41.098Z,52.20
2019-03-20T18:29:17.037Z,53.10
2019-03-20T18:31:53.517Z,52.90
2019-03-20T18:34:29.785Z,53.60
2019-03-20T18:37:05.441Z,54.30
2019-03-20T18:39:40.489Z,55.40
2019-03-20T18:42:15.555Z,56.20
2019-03-20T18:44:50.669Z,57.20
2019-03-20T18:47:26.082Z,57.70
2019-03-20T18:50:01.434Z,58.00
2019-03-20T18:52:38.821Z,58.20
2019-03-20T18:55:16.157Z,58.60
2019-03-20T18:57:51.190Z,59.70
2019-03-20T19:00:34.127Z,60.10
2019-03-20T19:03:15.330Z,60.40
2019-03-20T19:05:56.526Z,60.80
2019-03-20T19:08:31.655Z,60.90
2019-03-20T19:11:07.418Z,62.00
2019-03-20T19:13:42.871Z,62.80
2019-03-20T19:16:17.955Z,63.10
2019-03-20T19:18:53.334Z,63.10
2019-03-20T19:21:28.384Z,63.10
2019-03-20T19:24:05.467Z,62.90
2019-03-20T19:26:42.513Z,63.40
2019-03-20T19:29:20.934Z,63.40
2019-03-20T19:31:58.249Z,63.20
2019-03-20T19:34:33.606Z,63.50
2019-03-20T19:37:08.645Z,63.30
2019-03-20T19:39:44.047Z,63.00
2019-03-20T19:42:20.108Z,62.80
2019-03-20T19:44:55.518Z,62.80
2019-03-20T19:47:30.815Z,62.30
2019-03-20T19:50:22.549Z,61.90
2019-03-20T19:52:57.584Z,61.90
2019-03-20T19:55:32.625Z,61.40
2019-03-20T19:58:08.061Z,61.30
2019-03-20T20:00:43.414Z,61.00
2019-03-20T20:03:19.045Z,61.30
2019-03-20T20:05:54.489Z,60.80
2019-03-20T20:08:29.842Z,60.50
2019-03-20T20:11:04.873Z,60.30
2019-03-20T20:13:41.271Z,60.20
2019-03-20T20:16:16.365Z,60.50
2019-03-20T20:18:51.718Z,60.40
2019-03-20T20:21:28.691Z,60.70
2019-03-20T20:24:03.723Z,61.00
2019-03-20T20:26:38.779Z,60.60
2019-03-20T20:29:13.810Z,60.70
2019-03-20T20:31:50.167Z,60.80
2019-03-20T20:34:26.262Z,60.60
2019-03-20T20:37:01.675Z,60.90
2019-03-20T20:39:36.894Z,61.00
2019-03-20T20:42:13.891Z,61.00
2019-03-20T20:44:48.927Z,61.50
2019-03-20T20:47:24.988Z,61.60
2019-03-20T20:50:00.017Z,61.80
2019-03-20T20:52:35.973Z,62.20
2019-03-20T20:55:14.730Z,62.50
2019-03-20T20:57:50.765Z,62.80
2019-03-20T21:00:27.186Z,63.00
2019-03-20T21:03:02.229Z,63.20
2019-03-20T21:05:37.258Z,63.90
2019-03-20T21:08:12.659Z,64.20
2019-03-20T21:10:47.704Z,64.10
2019-03-20T21:13:23.017Z,64.00
2019-03-20T21:15:58.077Z,64.30
2019-03-20T21:18:49.019Z,64.10
2019-03-20T21:21:25.206Z,64.90
2019-03-20T21:24:23.102Z,65.80
2019-03-20T21:27:04.982Z,65.70
2019-03-20T21:30:03.601Z,65.60
2019-03-20T21:32:47.312Z,66.10
2019-03-20T21:35:53.233Z,66.50
2019-03-20T21:38:29.869Z,66.40
2019-03-20T21:41:15.030Z,66.90
2019-03-20T21:43:55.919Z,67.00
2019-03-20T21:46:55.091Z,67.50
2019-03-20T21:49:30.766Z,67.90
2019-03-20T21:52:05.810Z,68.90
2019-03-20T21:55:11.841Z,69.30
2019-03-20T21:57:52.107Z,70.00
2019-03-20T22:01:05.315Z,70.30
2019-03-20T22:03:43.676Z,70.60
2019-03-20T22:06:58.730Z,70.70
2019-03-20T22:09:53.413Z,71.30
2019-03-20T22:12:35.249Z,71.40
2019-03-20T22:15:14.047Z,71.70
2019-03-20T22:18:06.383Z,72.10
2019-03-20T22:20:47.981Z,72.70
2019-03-20T22:23:40.600Z,73.20
2019-03-20T22:26:39.311Z,73.30
2019-03-20T22:29:21.236Z,73.70
2019-03-20T22:32:31.929Z,74.00
2019-03-20T22:35:27.693Z,74.30
2019-03-20T22:38:05.360Z,75.50
2019-03-20T22:41:21.696Z,76.30
2019-03-20T22:43:59.698Z,77.00
2019-03-20T22:46:50.813Z,77.70
2019-03-20T22:49:48.073Z,78.20
2019-03-20T22:52:35.799Z,78.60
2019-03-20T22:55:26.915Z,79.10
2019-03-20T22:58:27.755Z,79.70
2019-03-20T23:01:02.799Z,80.40
2019-03-20T23:03:41.212Z,81.40
2019-03-20T23:06:17.261Z,81.90
2019-03-20T23:08:52.294Z,82.30
2019-03-20T23:11:27.744Z,82.60
2019-03-20T23:14:02.768Z,83.10
2019-03-20T23:16:38.117Z,83.30
2019-03-20T23:19:13.245Z,83.50
2019-03-20T23:21:48.701Z,83.50
2019-03-20T23:24:23.816Z,83.80
2019-03-20T23:27:01.079Z,83.90
2019-03-20T23:29:36.566Z,84.00
2019-03-20T23:32:12.890Z,84.10
2019-03-20T23:34:48.839Z,84.00
2019-03-20T23:37:23.855Z,84.50
2019-03-20T23:39:58.925Z,84.90
2019-03-20T23:42:33.940Z,85.10
2019-03-20T23:45:15.661Z,85.30
2019-03-20T23:47:56.567Z,85.30
2019-03-20T23:50:31.601Z,85.50
2019-03-20T23:53:06.662Z,85.50
2019-03-20T23:55:41.758Z,86.40
2019-03-20T23:58:17.518Z,85.30
